createdAt,value
2019-03-06T04:15:24.211Z,13.10
2019-03-06T04:17:53.266Z,12.67
2019-03-06T04:20:22.258Z,12.30
2019-03-06T04:22:51.359Z,12.97
2019-03-06T04:25:20.586Z,12.67
2019-03-06T04:27:49.768Z,11.83
2019-03-06T04:30:19.018Z,11.97
2019-03-06T04:32:48.004Z,12.57
2019-03-06T04:35:17.224Z,13.57
2019-03-06T04:37:46.381Z,12.43
2019-03-06T04:40:15.882Z,12.60
2019-03-06T04:42:44.908Z,12.10
2019-03-06T04:45:14.151Z,11.90
2019-03-06T04:47:43.278Z,13.77
2019-03-06T04:50:12.674Z,12.70
2019-03-06T04:52:42.134Z,13.73
2019-03-06T04:55:11.691Z,11.87
2019-03-06T04:57:40.703Z,12.27
2019-03-06T05:00:10.967Z,12.27
2019-03-06T05:02:40.058Z,13.50
2019-03-06T05:05:09.609Z,13.00
2019-03-06T05:07:38.798Z,11.53
2019-03-06T05:10:08.502Z,10.97
2019-03-06T05:12:37.646Z,11.40
2019-03-06T05:15:07.657Z,11.90
2019-03-06T05:18:01.845Z,12.20
2019-03-06T05:20:30.840Z,12.57
2019-03-06T05:22:59.835Z,12.53
2019-03-06T05:25:29.145Z,12.20
2019-03-06T05:27:58.141Z,13.60
2019-03-06T05:30:28.303Z,12.60
2019-03-06T05:32:58.411Z,11.70
2019-03-06T05:35:43.843Z,12.17
2019-03-06T05:38:16.227Z,12.27
2019-03-06T05:40:45.363Z,11.70
2019-03-06T05:43:14.349Z,11.63
2019-03-06T05:45:43.511Z,12.40
2019-03-06T05:48:12.486Z,10.60
2019-03-06T05:50:41.468Z,10.30
2019-03-06T05:53:10.530Z,11.23
2019-03-06T05:55:39.524Z,12.60
2019-03-06T05:58:08.810Z,11.23
2019-03-06T06:00:37.809Z,11.10
2019-03-06T06:03:06.897Z,10.90
2019-03-06T06:05:35.967Z,10.73
2019-03-06T06:08:04.949Z,9.77
2019-03-06T06:10:34.302Z,9.73
2019-03-06T06:13:03.411Z,8.70
2019-03-06T06:15:32.515Z,9.13
2019-03-06T06:18:01.590Z,9.70
2019-03-06T06:20:30.688Z,8.37
2019-03-06T06:23:07.871Z,9.63
2019-03-06T06:25:37.134Z,8.80
2019-03-06T06:28:06.322Z,9.17
2019-03-06T06:30:35.323Z,7.27
2019-03-06T06:33:04.472Z,7.80
2019-03-06T06:35:33.531Z,8.63
2019-03-06T06:38:02.586Z,8.43
2019-03-06T06:40:31.519Z,8.13
2019-03-06T06:43:00.442Z,7.30
2019-03-06T06:45:29.438Z,7.97
2019-03-06T06:48:23.852Z,6.93
2019-03-06T06:51:46.323Z,6.20
2019-03-06T06:54:32.916Z,6.20
2019-03-06T06:57:17.947Z,6.63
2019-03-06T07:00:57.621Z,6.73
2019-03-06T07:04:10.144Z,5.90
2019-03-06T07:06:58.047Z,5.53
2019-03-06T07:09:55.218Z,6.27
2019-03-06T07:12:33.122Z,5.33
2019-03-06T07:15:24.279Z,6.00
2019-03-06T07:18:00.555Z,5.67
2019-03-06T07:20:51.226Z,4.60
2019-03-06T07:23:29.746Z,4.40
2019-03-06T07:26:21.134Z,4.80
2019-03-06T07:28:56.227Z,4.27
2019-03-06T07:31:56.619Z,4.03
2019-03-06T07:34:51.112Z,4.40
2019-03-06T07:37:35.538Z,4.00
2019-03-06T07:40:15.730Z,3.80
2019-03-06T07:42:55.295Z,3.40
2019-03-06T07:46:05.981Z,3.47
2019-03-06T07:48:54.675Z,3.03
2019-03-06T07:51:46.959Z,2.83
2019-03-06T07:54:35.127Z,3.27
2019-03-06T07:57:38.666Z,2.77
2019-03-06T08:00:15.079Z,3.10
2019-03-06T08:03:08.952Z,2.83
2019-03-06T08:05:38.062Z,3.20
2019-03-06T08:08:07.113Z,2.43
2019-03-06T08:10:37.660Z,2.13
2019-03-06T08:13:30.275Z,2.23
2019-03-06T08:16:08.178Z,1.80
2019-03-06T08:18:48.626Z,1.77
2019-03-06T08:21:28.813Z,1.80
2019-03-06T08:24:11.933Z,1.83
2019-03-06T08:26:41.102Z,2.00
2019-03-06T08:29:10.446Z,1.70
2019-03-06T08:31:45.584Z,1.83
2019-03-06T08:34:14.763Z,1.60
2019-03-06T08:36:43.838Z,1.87
2019-03-06T08:39:20.754Z,2.10
2019-03-06T08:41:49.849Z,2.10
2019-03-06T08:44:19.063Z,2.40
2019-03-06T08:47:07.558Z,1.80
2019-03-06T08:49:58.788Z,2.07
2019-03-06T08:53:05.141Z,2.00
2019-03-06T08:55:40.598Z,2.13
2019-03-06T08:58:22.058Z,1.80
2019-03-06T09:01:03.386Z,2.20
2019-03-06T09:03:51.732Z,1.77
2019-03-06T09:06:27.221Z,1.80
2019-03-06T09:09:08.427Z,1.80
2019-03-06T09:11:56.506Z,2.13
2019-03-06T09:14:50.830Z,2.43
2019-03-06T09:17:38.867Z,1.80
2019-03-06T09:20:39.002Z,2.13
2019-03-06T09:23:24.026Z,2.00
2019-03-06T09:26:00.328Z,1.80
2019-03-06T09:28:42.025Z,1.87
2019-03-06T09:31:28.714Z,1.60
2019-03-06T09:34:02.581Z,1.60
2019-03-06T09:36:44.251Z,1.70
2019-03-06T09:39:34.987Z,1.80
2019-03-06T09:42:23.137Z,1.53
2019-03-06T09:45:20.223Z,1.83
2019-03-06T09:48:12.737Z,1.77
2019-03-06T09:51:04.031Z,2.00
2019-03-06T09:53:45.786Z,1.60
2019-03-06T09:56:37.098Z,1.03
2019-03-06T09:59:15.446Z,1.20
2019-03-06T10:02:06.671Z,1.30
2019-03-06T10:04:41.919Z,1.43
2019-03-06T10:07:20.206Z,1.33
2019-03-06T10:10:00.986Z,1.00
2019-03-06T10:12:37.413Z,0.80
2019-03-06T10:15:44.802Z,0.80
2019-03-06T10:18:34.454Z,1.07
2019-03-06T10:21:03.567Z,0.70
2019-03-06T10:23:32.727Z,0.97
2019-03-06T10:26:01.967Z,1.20
2019-03-06T10:28:31.091Z,1.00
2019-03-06T10:31:02.687Z,1.07
2019-03-06T10:33:31.104Z,0.90
2019-03-06T10:36:00.454Z,1.13
2019-03-06T10:38:29.520Z,1.00
2019-03-06T10:40:58.575Z,0.80
2019-03-06T10:43:27.706Z,1.33
2019-03-06T10:45:56.859Z,0.83
2019-03-06T10:48:25.986Z,1.03
2019-03-06T10:50:55.147Z,1.00
2019-03-06T10:53:24.285Z,1.00
2019-03-06T10:55:53.425Z,1.17
2019-03-06T10:58:22.459Z,0.80
2019-03-06T11:00:55.246Z,1.40
2019-03-06T11:03:35.910Z,0.90
2019-03-06T11:06:05.681Z,1.03
2019-03-06T11:08:35.050Z,1.13
2019-03-06T11:11:04.667Z,1.10
2019-03-06T11:13:33.919Z,1.33
2019-03-06T11:16:03.580Z,1.17
2019-03-06T11:18:32.641Z,1.03
2019-03-06T11:21:01.842Z,1.20
2019-03-06T11:23:30.862Z,1.40
2019-03-06T11:26:01.925Z,1.10
2019-03-06T11:28:30.944Z,1.40
2019-03-06T11:31:00.691Z,0.93
2019-03-06T11:33:29.835Z,1.10
2019-03-06T11:35:59.850Z,1.60
2019-03-06T11:38:29.682Z,1.50
2019-03-06T11:40:59.586Z,1.10
2019-03-06T11:43:29.322Z,1.40
2019-03-06T11:45:58.644Z,1.20
2019-03-06T11:48:28.259Z,1.10
2019-03-06T11:50:57.871Z,1.67
2019-03-06T11:53:27.331Z,1.20
2019-03-06T11:55:56.639Z,1.40
2019-03-06T11:58:25.767Z,1.10
2019-03-06T12:00:54.991Z,1.47
2019-03-06T12:03:24.318Z,1.33
2019-03-06T12:05:53.670Z,1.57
2019-03-06T12:08:22.826Z,1.57
2019-03-06T12:10:52.470Z,1.50
2019-03-06T12:13:21.998Z,1.20
2019-03-06T12:15:51.921Z,1.67
2019-03-06T12:18:22.748Z,1.20
2019-03-06T12:20:52.786Z,1.83
2019-03-06T12:23:22.172Z,1.60
2019-03-06T12:25:51.780Z,1.27
2019-03-06T12:28:21.340Z,1.80
2019-03-06T12:30:50.650Z,1.30
2019-03-06T12:33:22.134Z,1.30
2019-03-06T12:35:51.433Z,2.33
2019-03-06T12:38:20.799Z,1.90
2019-03-06T12:40:49.995Z,1.30
2019-03-06T12:43:19.070Z,1.43
2019-03-06T12:46:22.346Z,1.70
2019-03-06T12:48:45.226Z,1.67
2019-03-06T12:51:14.382Z,1.30
2019-03-06T12:53:43.967Z,1.47
2019-03-06T12:56:13.095Z,1.33
2019-03-06T12:58:42.309Z,1.60
2019-03-06T13:01:11.397Z,1.67
2019-03-06T13:03:40.448Z,1.30
2019-03-06T13:06:09.596Z,1.77
2019-03-06T13:08:38.846Z,1.50
2019-03-06T13:11:07.994Z,1.47
2019-03-06T13:13:36.994Z,1.93
2019-03-06T13:16:06.166Z,1.40
2019-03-06T13:18:35.331Z,1.80
2019-03-06T13:21:06.871Z,1.63
2019-03-06T13:23:36.425Z,1.50
2019-03-06T13:26:10.363Z,1.80
2019-03-06T13:28:36.406Z,1.30
2019-03-06T13:31:05.650Z,1.57
2019-03-06T13:33:53.845Z,1.40
2019-03-06T13:36:23.173Z,1.50
2019-03-06T13:38:59.096Z,1.30
2019-03-06T13:41:23.050Z,1.70
2019-03-06T13:43:52.282Z,2.00
2019-03-06T13:46:21.422Z,1.63
2019-03-06T13:48:50.809Z,1.07
2019-03-06T13:51:20.023Z,1.80
2019-03-06T13:53:49.037Z,2.00
2019-03-06T13:56:18.109Z,1.37
2019-03-06T13:58:47.374Z,1.33
2019-03-06T14:01:17.009Z,1.80
2019-03-06T14:03:46.223Z,1.60
2019-03-06T14:06:15.377Z,1.80
2019-03-06T14:08:44.716Z,1.63
2019-03-06T14:11:13.883Z,1.63
2019-03-06T14:13:43.233Z,1.57
2019-03-06T14:16:12.397Z,2.17
2019-03-06T14:18:41.507Z,1.70
2019-03-06T14:21:10.674Z,1.57
2019-03-06T14:23:39.701Z,1.77
2019-03-06T14:26:08.938Z,1.40
2019-03-06T14:28:38.199Z,1.43
2019-03-06T14:31:07.446Z,1.50
2019-03-06T14:33:36.667Z,1.77
2019-03-06T14:36:05.882Z,1.87
2019-03-06T14:38:35.402Z,1.90
2019-03-06T14:41:04.651Z,2.70
2019-03-06T14:43:34.655Z,1.47
2019-03-06T14:46:03.758Z,2.00
2019-03-06T14:48:32.819Z,1.70
2019-03-06T14:51:02.024Z,1.73
2019-03-06T14:53:31.491Z,1.50
2019-03-06T14:56:00.485Z,1.40
2019-03-06T14:58:29.647Z,1.60
2019-03-06T15:00:58.875Z,1.60
2019-03-06T15:03:27.960Z,1.73
2019-03-06T15:05:57.263Z,1.90
2019-03-06T15:08:26.337Z,1.67
2019-03-06T15:10:55.481Z,2.00
2019-03-06T15:13:24.490Z,2.90
2019-03-06T15:15:53.848Z,1.57
2019-03-06T15:18:23.005Z,1.97
2019-03-06T15:20:53.394Z,1.62
2019-03-06T15:23:22.499Z,2.00
2019-03-06T15:25:51.611Z,2.60
2019-03-06T15:28:21.336Z,1.97
2019-03-06T15:30:50.612Z,2.00
2019-03-06T15:33:20.013Z,1.80
2019-03-06T15:35:49.210Z,2.33
2019-03-06T15:38:18.341Z,1.83
2019-03-06T15:40:47.491Z,1.60
2019-03-06T15:43:18.418Z,1.40
2019-03-06T15:45:47.611Z,1.80
2019-03-06T15:48:16.720Z,1.70
2019-03-06T15:50:45.975Z,2.07
2019-03-06T15:53:24.083Z,1.90
2019-03-06T15:55:46.384Z,1.80
2019-03-06T15:58:15.817Z,1.90
2019-03-06T16:00:46.504Z,1.77
2019-03-06T16:03:16.079Z,2.33
2019-03-06T16:05:45.227Z,1.87
2019-03-06T16:08:14.670Z,2.70
2019-03-06T16:10:43.938Z,1.60
2019-03-06T16:13:13.086Z,2.13
2019-03-06T16:15:42.173Z,2.10
2019-03-06T16:18:11.377Z,1.73
2019-03-06T16:20:40.552Z,1.60
2019-03-06T16:23:09.727Z,2.07
2019-03-06T16:25:40.145Z,2.13
2019-03-06T16:28:09.347Z,2.10
2019-03-06T16:30:39.178Z,2.10
2019-03-06T16:33:08.496Z,2.00
2019-03-06T16:35:37.646Z,2.57
2019-03-06T16:38:06.834Z,1.93
2019-03-06T16:40:36.075Z,2.17
2019-03-06T16:43:05.286Z,1.80
2019-03-06T16:45:34.350Z,2.33
2019-03-06T16:48:03.637Z,1.80
2019-03-06T16:50:33.640Z,2.40
2019-03-06T16:53:03.175Z,2.43
2019-03-06T16:55:32.378Z,2.57
2019-03-06T16:58:01.561Z,2.77
2019-03-06T17:00:31.725Z,2.57
2019-03-06T17:03:01.948Z,2.20
2019-03-06T17:05:31.539Z,3.07
2019-03-06T17:08:01.024Z,2.50
2019-03-06T17:10:30.278Z,2.60
2019-03-06T17:13:00.175Z,2.40
2019-03-06T17:15:29.918Z,2.87
2019-03-06T17:17:59.180Z,2.63
2019-03-06T17:20:28.582Z,3.20
2019-03-06T17:22:58.035Z,3.00
2019-03-06T17:25:28.450Z,2.97
2019-03-06T17:27:57.910Z,2.77
2019-03-06T17:30:27.391Z,3.43
2019-03-06T17:33:08.617Z,4.47
2019-03-06T17:35:38.363Z,2.70
2019-03-06T17:38:08.600Z,3.07
2019-03-06T17:40:37.762Z,2.70
2019-03-06T17:43:07.240Z,3.30
2019-03-06T17:45:36.996Z,2.60
2019-03-06T17:48:06.638Z,2.83
2019-03-06T17:50:35.959Z,2.90
2019-03-06T17:53:05.414Z,2.93
2019-03-06T17:55:34.541Z,2.27
2019-03-06T17:58:03.785Z,3.37
2019-03-06T18:00:38.317Z,3.27
2019-03-06T18:03:08.698Z,2.80
2019-03-06T18:05:37.822Z,3.10
2019-03-06T18:08:07.019Z,3.63
2019-03-06T18:10:36.193Z,3.20
2019-03-06T18:13:05.427Z,3.90
2019-03-06T18:15:34.571Z,3.40
2019-03-06T18:18:03.854Z,3.17
2019-03-06T18:20:32.918Z,3.20
2019-03-06T18:23:02.691Z,3.30
2019-03-06T18:25:31.760Z,3.20
2019-03-06T18:28:00.873Z,2.97
2019-03-06T18:30:30.032Z,5.03
2019-03-06T18:32:59.224Z,3.50
2019-03-06T18:35:28.442Z,3.83
2019-03-06T18:37:57.607Z,4.00
2019-03-06T18:40:27.031Z,3.80
2019-03-06T18:42:56.151Z,4.00
2019-03-06T18:45:25.242Z,3.90
2019-03-06T18:47:54.318Z,3.03
2019-03-06T18:50:23.645Z,3.77
2019-03-06T18:52:52.956Z,4.67
2019-03-06T18:55:22.426Z,4.43
2019-03-06T18:57:51.632Z,3.57
2019-03-06T19:00:21.230Z,3.43
2019-03-06T19:02:50.737Z,3.73
2019-03-06T19:05:20.309Z,4.70
2019-03-06T19:07:49.975Z,4.00
2019-03-06T19:10:19.558Z,3.80
2019-03-06T19:12:48.986Z,4.40
2019-03-06T19:15:19.178Z,4.20
2019-03-06T19:17:48.477Z,4.03
2019-03-06T19:20:18.719Z,3.93
2019-03-06T19:22:48.407Z,4.27
2019-03-06T19:25:17.703Z,4.13
2019-03-06T19:27:47.171Z,4.40
2019-03-06T19:30:18.078Z,4.97
2019-03-06T19:32:47.640Z,4.17
2019-03-06T19:35:17.758Z,5.13
2019-03-06T19:37:47.013Z,4.70
2019-03-06T19:40:16.785Z,4.27
2019-03-06T19:42:46.224Z,5.40
2019-03-06T19:45:16.922Z,5.63
2019-03-06T19:47:46.384Z,5.17
2019-03-06T19:50:17.798Z,5.83
2019-03-06T19:52:46.922Z,5.33
2019-03-06T19:55:17.487Z,4.70
2019-03-06T19:57:57.534Z,5.13
2019-03-06T20:00:29.292Z,5.13
2019-03-06T20:02:58.418Z,5.13
2019-03-06T20:05:31.037Z,4.97
2019-03-06T20:08:01.422Z,4.77
2019-03-06T20:10:30.676Z,5.30
2019-03-06T20:12:59.884Z,4.03
2019-03-06T20:15:29.051Z,5.00
2019-03-06T20:17:58.333Z,5.00
2019-03-06T20:20:27.475Z,4.53
2019-03-06T20:22:56.592Z,4.93
2019-03-06T20:25:25.690Z,4.70
2019-03-06T20:27:54.853Z,4.90
2019-03-06T20:30:24.402Z,4.10
2019-03-06T20:32:53.866Z,4.40
2019-03-06T20:35:23.369Z,4.70
2019-03-06T20:37:52.803Z,4.00
2019-03-06T20:40:22.433Z,3.93
2019-03-06T20:42:51.486Z,3.80
2019-03-06T20:45:20.762Z,4.37
2019-03-06T20:47:49.839Z,4.00
2019-03-06T20:50:19.070Z,3.63
2019-03-06T20:52:50.215Z,3.87
2019-03-06T20:55:19.120Z,4.33
2019-03-06T20:57:48.350Z,3.47
2019-03-06T21:00:19.936Z,3.80
2019-03-06T21:02:49.093Z,3.27
2019-03-06T21:05:18.230Z,2.37
2019-03-06T21:07:47.664Z,2.57
2019-03-06T21:10:16.862Z,2.23
2019-03-06T21:12:46.065Z,2.63
2019-03-06T21:15:16.269Z,3.13
2019-03-06T21:17:45.399Z,2.90
2019-03-06T21:20:16.126Z,3.83
2019-03-06T21:22:45.346Z,2.13
2019-03-06T21:25:16.076Z,2.33
2019-03-06T21:27:45.202Z,2.23
2019-03-06T21:30:17.319Z,2.23
2019-03-06T21:32:46.491Z,1.93
2019-03-06T21:35:15.646Z,2.00
2019-03-06T21:37:44.741Z,2.60
2019-03-06T21:40:13.887Z,2.10
2019-03-06T21:42:43.076Z,2.30
2019-03-06T21:45:12.410Z,2.20
2019-03-06T21:47:41.488Z,1.93
2019-03-06T21:50:11.957Z,2.00
2019-03-06T21:52:41.099Z,1.57
2019-03-06T21:55:11.976Z,2.30
2019-03-06T21:57:41.228Z,2.17
2019-03-06T22:00:14.992Z,2.77
2019-03-06T22:02:44.075Z,2.17
2019-03-06T22:05:13.227Z,2.50
2019-03-06T22:07:42.375Z,1.60
2019-03-06T22:10:11.813Z,2.25
2019-03-06T22:12:41.264Z,2.40
2019-03-06T22:15:11.856Z,1.90
2019-03-06T22:17:41.238Z,2.40
2019-03-06T22:20:11.526Z,2.37
2019-03-06T22:22:40.710Z,3.13
2019-03-06T22:25:10.742Z,2.07
2019-03-06T22:27:39.891Z,2.70
2019-03-06T22:30:12.076Z,2.40
2019-03-06T22:32:41.241Z,2.67
2019-03-06T22:35:10.816Z,1.93
2019-03-06T22:37:39.967Z,2.77
2019-03-06T22:40:09.997Z,2.30
2019-03-06T22:42:39.203Z,2.57
2019-03-06T22:45:08.747Z,2.13
2019-03-06T22:47:37.956Z,2.03
2019-03-06T22:50:08.565Z,2.30
2019-03-06T22:52:37.737Z,2.10
2019-03-06T22:55:08.679Z,2.47
2019-03-06T22:57:37.888Z,1.60
2019-03-06T23:00:28.532Z,2.40
2019-03-06T23:03:00.538Z,1.80
2019-03-06T23:05:30.113Z,2.30
2019-03-06T23:07:59.275Z,1.93
2019-03-06T23:10:28.565Z,2.17
2019-03-06T23:12:58.633Z,2.03
2019-03-06T23:15:27.913Z,1.80
2019-03-06T23:17:58.327Z,1.60
2019-03-06T23:20:27.533Z,2.03
2019-03-06T23:22:56.789Z,1.97
2019-03-06T23:25:25.912Z,2.07
2019-03-06T23:27:55.144Z,2.23
